createdAt,value
2023-02-23T00:03:09.284Z,19.80
2023-02-23T00:06:40.811Z,23.30
2023-02-23T00:10:12.844Z,21.30
2023-02-23T00:13:41.219Z,23.50
2023-02-23T00:17:15.283Z,21.90
2023-02-23T00:20:49.063Z,23.30
2023-02-23T00:24:19.474Z,19.10
2023-02-23T00:27:49.769Z,22.90
2023-02-23T00:31:17.545Z,25.00
2023-02-23T00:34:45.222Z,21.60
2023-02-23T00:38:14.445Z,21.70
2023-02-23T00:41:44.266Z,22.20
2023-02-23T00:45:13.526Z,20.20
2023-02-23T00:48:42.332Z,20.80
2023-02-23T00:52:11.466Z,24.70
2023-02-23T00:55:42.198Z,24.90
2023-02-23T00:59:10.031Z,26.70
2023-02-23T01:02:37.169Z,20.80
2023-02-23T01:06:06.729Z,24.80
2023-02-23T01:09:35.238Z,20.50
2023-02-23T01:13:06.273Z,21.00
2023-02-23T01:16:39.281Z,22.50
2023-02-23T01:20:15.981Z,23.20
2023-02-23T01:23:43.188Z,22.60
2023-02-23T01:27:10.770Z,21.20
2023-02-23T01:30:38.027Z,23.10
2023-02-23T01:34:06.219Z,26.80
2023-02-23T01:37:35.655Z,22.40
2023-02-23T01:41:04.392Z,25.20
2023-02-23T01:45:15.033Z,25.00
2023-02-23T01:48:43.884Z,26.50
2023-02-23T01:52:14.776Z,25.50
2023-02-23T01:55:43.288Z,24.40
2023-02-23T01:59:13.078Z,23.00
2023-02-23T02:02:42.335Z,24.40
2023-02-23T02:06:14.798Z,23.60
2023-02-23T02:10:03.563Z,21.90
2023-02-23T02:13:33.726Z,23.60
2023-02-23T02:17:13.358Z,24.00
2023-02-23T02:21:16.660Z,23.30
2023-02-23T02:25:18.919Z,24.30
2023-02-23T02:29:29.157Z,25.40
2023-02-23T02:33:27.586Z,21.80
2023-02-23T02:37:39.530Z,30.70
2023-02-23T02:41:12.315Z,20.90
2023-02-23T02:44:53.353Z,20.50
2023-02-23T02:48:34.991Z,21.90
2023-02-23T02:52:13.997Z,21.90
2023-02-23T02:55:44.182Z,23.70
2023-02-23T02:59:36.292Z,22.70
2023-02-23T03:03:21.431Z,20.20
2023-02-23T03:07:12.258Z,28.00
2023-02-23T03:11:05.994Z,23.30
2023-02-23T03:18:57.084Z,20.60
2023-02-23T03:22:48.930Z,24.10
2023-02-23T03:26:40.677Z,22.80
2023-02-23T03:30:34.756Z,23.80
2023-02-23T03:34:28.357Z,24.90
2023-02-23T03:38:19.839Z,23.10
2023-02-23T03:42:05.626Z,24.00
2023-02-23T03:45:52.411Z,23.20
2023-02-23T03:49:40.354Z,23.40
2023-02-23T03:53:27.024Z,23.20
2023-02-23T03:57:14.301Z,22.10
2023-02-23T04:01:04.332Z,22.70
2023-02-23T04:04:49.686Z,23.20
2023-02-23T04:08:37.898Z,23.80
2023-02-23T04:12:28.582Z,25.60
2023-02-23T04:15:57.098Z,23.70
2023-02-23T04:19:23.603Z,19.20
2023-02-23T04:22:50.102Z,20.40
2023-02-23T04:26:16.901Z,21.40
2023-02-23T04:29:44.381Z,22.70
2023-02-23T04:33:11.176Z,23.90
2023-02-23T04:36:37.656Z,19.80
2023-02-23T04:40:04.438Z,19.30
2023-02-23T04:43:31.134Z,18.50
2023-02-23T04:46:57.403Z,22.80
2023-02-23T04:50:24.293Z,22.70
2023-02-23T04:53:50.983Z,21.90
2023-02-23T04:57:17.648Z,21.00
2023-02-23T05:00:44.414Z,21.30
2023-02-23T05:04:11.687Z,23.10
2023-02-23T05:07:39.009Z,22.30
2023-02-23T05:11:07.375Z,21.40
2023-02-23T05:14:34.209Z,20.00
2023-02-23T05:18:00.724Z,22.00
2023-02-23T05:21:27.647Z,21.60
2023-02-23T05:24:57.312Z,21.90
2023-02-23T05:28:24.066Z,22.20
2023-02-23T05:31:51.011Z,20.30
2023-02-23T05:35:18.584Z,20.90
2023-02-23T05:38:45.921Z,21.70
2023-02-23T05:42:17.313Z,23.30
2023-02-23T05:45:45.382Z,23.10
2023-02-23T05:49:13.993Z,27.20
2023-02-23T05:52:42.411Z,26.90
2023-02-23T05:56:13.962Z,28.20
2023-02-23T05:59:40.620Z,28.00
2023-02-23T06:03:07.350Z,29.70
2023-02-23T06:06:34.400Z,29.00
2023-02-23T06:10:01.290Z,28.50
2023-02-23T06:13:29.236Z,31.40
2023-02-23T06:16:56.751Z,32.70
2023-02-23T06:20:23.916Z,29.20
2023-02-23T06:23:50.924Z,29.90
2023-02-23T06:27:17.970Z,30.90
2023-02-23T06:30:45.955Z,28.70
2023-02-23T06:34:12.883Z,25.70
2023-02-23T06:37:39.920Z,28.70
2023-02-23T06:41:12.343Z,25.00
2023-02-23T06:44:39.901Z,27.70
2023-02-23T06:48:07.917Z,28.80
2023-02-23T06:51:35.656Z,25.60
2023-02-23T06:55:02.614Z,27.50
2023-02-23T06:58:29.911Z,23.30
2023-02-23T07:01:56.842Z,23.00
2023-02-23T07:05:23.492Z,38.80
2023-02-23T07:08:50.534Z,32.40
2023-02-23T07:12:17.348Z,40.40
2023-02-23T07:15:44.651Z,22.50
2023-02-23T07:19:11.561Z,30.40
2023-02-23T07:22:40.002Z,83.10
2023-02-23T07:26:07.387Z,54.80
2023-02-23T07:29:34.233Z,40.90
2023-02-23T07:33:03.125Z,30.10
2023-02-23T07:36:29.788Z,43.50
2023-02-23T07:39:56.602Z,35.80
2023-02-23T07:43:24.459Z,29.30
2023-02-23T07:46:53.246Z,47.80
2023-02-23T07:50:21.005Z,29.80
2023-02-23T07:53:48.086Z,26.80
2023-02-23T07:57:14.972Z,30.40
2023-02-23T08:00:41.797Z,23.70
2023-02-23T08:04:09.183Z,23.90
2023-02-23T08:07:36.654Z,36.10
2023-02-23T08:11:05.314Z,30.00
2023-02-23T08:14:32.218Z,29.30
2023-02-23T08:17:59.312Z,37.00
2023-02-23T08:21:25.749Z,24.50
2023-02-23T08:24:52.093Z,24.60
2023-02-23T08:28:20.579Z,24.40
2023-02-23T08:31:48.430Z,29.80
2023-02-23T08:35:16.084Z,24.10
2023-02-23T08:38:42.509Z,26.70
2023-02-23T08:42:10.533Z,26.50
2023-02-23T08:45:38.930Z,25.80
2023-02-23T08:49:09.036Z,24.70
2023-02-23T08:52:36.558Z,21.70
2023-02-23T08:56:18.102Z,25.70
2023-02-23T08:59:49.307Z,30.30
2023-02-23T09:03:20.408Z,24.70
2023-02-23T09:06:50.953Z,33.00
2023-02-23T09:10:25.913Z,30.00
2023-02-23T09:14:01.019Z,32.70
2023-02-23T09:17:30.349Z,33.20
2023-02-23T09:21:00.403Z,31.50
2023-02-23T09:24:28.688Z,30.70
2023-02-23T09:27:59.804Z,30.70
2023-02-23T09:31:27.374Z,31.80
2023-02-23T09:34:54.260Z,28.60
2023-02-23T09:38:20.767Z,30.20
2023-02-23T09:42:18.129Z,38.20
2023-02-23T09:45:49.228Z,28.00
2023-02-23T09:49:20.181Z,28.90
2023-02-23T09:52:50.656Z,29.80
2023-02-23T09:56:22.128Z,38.70
2023-02-23T09:59:48.810Z,34.10
2023-02-23T10:03:26.047Z,34.80
2023-02-23T10:07:00.632Z,35.70
2023-02-23T10:10:37.799Z,53.00
2023-02-23T10:14:21.664Z,34.20
2023-02-23T10:21:26.586Z,33.10
2023-02-23T10:24:57.783Z,28.70
2023-02-23T10:28:25.368Z,32.40
2023-02-23T10:31:58.314Z,33.50
2023-02-23T10:35:26.354Z,44.90
2023-02-23T10:38:53.119Z,34.40
2023-02-23T10:42:24.479Z,53.70
2023-02-23T10:45:52.859Z,56.00
2023-02-23T10:49:23.249Z,32.60
2023-02-23T10:52:53.038Z,33.80
2023-02-23T10:56:21.843Z,29.50
2023-02-23T11:00:03.425Z,44.40
2023-02-23T11:03:37.400Z,30.20
2023-02-23T11:07:18.008Z,32.70
2023-02-23T11:10:56.297Z,32.60
2023-02-23T11:14:28.925Z,33.60
2023-02-23T11:18:00.898Z,33.00
2023-02-23T11:21:33.712Z,31.00
2023-02-23T11:25:01.850Z,27.80
2023-02-23T11:28:33.607Z,31.30
2023-02-23T11:32:09.865Z,32.80
2023-02-23T11:35:37.754Z,31.80
2023-02-23T11:39:23.722Z,30.70
2023-02-23T11:42:57.325Z,38.10
2023-02-23T11:46:25.667Z,41.90
2023-02-23T11:49:53.440Z,41.90
2023-02-23T11:53:30.030Z,42.50
2023-02-23T11:56:58.279Z,35.10
2023-02-23T12:00:30.425Z,41.70
2023-02-23T12:03:59.157Z,48.00
2023-02-23T12:07:39.140Z,35.00
2023-02-23T12:11:12.444Z,34.50
2023-02-23T12:14:49.991Z,39.50
2023-02-23T12:18:27.223Z,27.40
2023-02-23T12:22:03.701Z,29.90
2023-02-23T12:25:36.489Z,29.50
2023-02-23T12:29:07.538Z,38.30
2023-02-23T12:32:45.341Z,38.00
2023-02-23T12:36:26.709Z,33.20
2023-02-23T12:39:58.841Z,32.90
2023-02-23T12:43:31.882Z,40.00
2023-02-23T12:47:04.403Z,33.10
2023-02-23T12:50:34.753Z,31.00
2023-02-23T12:54:03.154Z,33.60
2023-02-23T12:57:39.103Z,34.10
2023-02-23T13:01:13.164Z,38.40
2023-02-23T13:05:06.054Z,32.70
2023-02-23T13:08:50.906Z,35.90
2023-02-23T13:12:33.414Z,32.60
2023-02-23T13:16:05.762Z,33.70
2023-02-23T13:19:39.627Z,33.80
2023-02-23T13:23:16.466Z,36.90
2023-02-23T13:26:50.465Z,34.30
2023-02-23T13:30:18.153Z,52.80
2023-02-23T13:33:44.824Z,40.80
2023-02-23T13:37:13.876Z,43.80
2023-02-23T13:40:46.817Z,36.90
2023-02-23T13:44:23.495Z,46.80
2023-02-23T13:47:55.762Z,40.60
2023-02-23T13:51:31.394Z,40.60
2023-02-23T13:55:04.773Z,42.50
2023-02-23T13:58:34.271Z,41.50
2023-02-23T14:02:17.898Z,45.50
2023-02-23T14:05:48.308Z,37.40
2023-02-23T14:09:24.030Z,38.00
2023-02-23T14:13:08.652Z,47.00
2023-02-23T14:16:36.448Z,39.60
2023-02-23T14:34:23.275Z,44.60
2023-02-23T14:38:01.171Z,46.00
2023-02-23T14:41:31.540Z,48.60
2023-02-23T14:45:04.189Z,52.70
2023-02-23T14:48:31.561Z,44.90
2023-02-23T14:52:06.096Z,43.50
2023-02-23T14:55:35.542Z,44.00
2023-02-23T14:59:02.466Z,43.00
2023-02-23T15:02:33.033Z,45.20
2023-02-23T15:06:02.697Z,83.50
2023-02-23T15:09:36.625Z,53.70
2023-02-23T15:13:11.119Z,54.80
2023-02-23T15:16:38.943Z,45.10
2023-02-23T15:20:16.237Z,43.80
2023-02-23T15:23:46.056Z,54.00
2023-02-23T15:27:23.053Z,49.50
2023-02-23T15:30:53.433Z,80.00
2023-02-23T15:34:22.250Z,46.60
2023-02-23T15:37:59.495Z,41.70
2023-02-23T15:41:42.641Z,42.30
2023-02-23T15:45:21.220Z,41.80
2023-02-23T15:48:53.872Z,40.70
2023-02-23T15:52:26.121Z,52.50
2023-02-23T15:55:56.295Z,47.10
2023-02-23T15:59:29.255Z,44.70
2023-02-23T16:03:00.085Z,48.70
2023-02-23T16:06:36.956Z,48.50
2023-02-23T16:10:21.959Z,61.60
2023-02-23T16:13:53.251Z,56.60
2023-02-23T16:17:30.369Z,50.80
2023-02-23T16:21:02.271Z,54.40
2023-02-23T16:28:02.188Z,62.30
2023-02-23T16:31:44.321Z,98.20
2023-02-23T16:35:25.940Z,114.40
2023-02-23T16:39:01.552Z,49.80
2023-02-23T16:42:32.839Z,71.20
2023-02-23T16:45:59.602Z,60.00
2023-02-23T16:49:26.075Z,57.20
2023-02-23T16:52:56.696Z,60.70
2023-02-23T16:56:25.880Z,61.30
2023-02-23T16:59:54.838Z,97.10
2023-02-23T17:03:25.946Z,66.00
2023-02-23T17:06:58.016Z,62.80
2023-02-23T17:10:27.249Z,67.10
2023-02-23T17:13:54.849Z,78.50
2023-02-23T17:17:23.059Z,79.20
2023-02-23T17:20:50.003Z,86.80
2023-02-23T17:24:18.296Z,63.20
2023-02-23T17:27:44.999Z,56.30
2023-02-23T17:31:14.597Z,54.60
2023-02-23T17:34:41.542Z,70.60
2023-02-23T17:38:09.540Z,78.60
2023-02-23T17:41:35.925Z,76.20
2023-02-23T17:45:04.264Z,68.50
2023-02-23T17:48:34.765Z,69.30
2023-02-23T17:52:03.316Z,67.00
2023-02-23T17:55:30.477Z,62.60
2023-02-23T17:58:58.583Z,57.30
2023-02-23T18:02:27.183Z,75.30
2023-02-23T18:05:55.050Z,83.20
2023-02-23T18:09:21.686Z,102.00
2023-02-23T18:12:48.338Z,101.80
2023-02-23T18:16:23.040Z,82.50
2023-02-23T18:19:53.479Z,92.90
2023-02-23T18:23:23.519Z,108.70
2023-02-23T18:27:02.325Z,115.10
2023-02-23T18:30:31.786Z,141.30
2023-02-23T18:34:01.770Z,113.30
2023-02-23T18:37:33.839Z,125.50
2023-02-23T18:41:07.641Z,125.80
2023-02-23T18:44:41.654Z,121.10
2023-02-23T18:48:13.850Z,105.30
2023-02-23T18:51:45.556Z,99.00
2023-02-23T18:55:18.095Z,90.60
2023-02-23T18:58:49.217Z,99.50
2023-02-23T19:02:19.396Z,98.10
2023-02-23T19:05:54.421Z,101.10
2023-02-23T19:09:27.467Z,104.80
2023-02-23T19:12:58.787Z,110.20
2023-02-23T19:16:30.274Z,115.40
2023-02-23T19:20:00.927Z,160.80
2023-02-23T19:23:28.334Z,154.50
2023-02-23T19:26:56.768Z,182.00
2023-02-23T19:30:24.176Z,185.70
2023-02-23T19:33:51.915Z,151.60
2023-02-23T19:37:19.018Z,126.10
2023-02-23T19:40:47.067Z,131.10
2023-02-23T19:44:13.759Z,131.20
2023-02-23T19:47:41.175Z,117.40
2023-02-23T19:51:11.553Z,106.00
2023-02-23T19:54:39.350Z,90.50
2023-02-23T19:58:07.763Z,81.50
2023-02-23T20:01:35.289Z,70.60
2023-02-23T20:05:03.783Z,77.70
2023-02-23T20:08:30.697Z,75.20
2023-02-23T20:11:58.338Z,77.60
2023-02-23T20:15:25.518Z,80.00
2023-02-23T20:18:54.937Z,80.30
2023-02-23T20:22:22.222Z,87.30
2023-02-23T20:25:49.116Z,92.20
2023-02-23T20:29:19.379Z,90.40
2023-02-23T20:32:48.154Z,86.00
2023-02-23T20:36:16.113Z,93.10
2023-02-23T20:39:44.590Z,91.50
2023-02-23T20:43:12.436Z,87.60
2023-02-23T20:46:44.163Z,79.10
2023-02-23T20:50:13.991Z,80.00
2023-02-23T20:53:42.094Z,73.30
2023-02-23T20:57:09.874Z,77.50
2023-02-23T21:00:40.171Z,74.80
2023-02-23T21:04:07.847Z,77.40
2023-02-23T21:07:36.098Z,74.30
2023-02-23T21:11:08.117Z,72.20
2023-02-23T21:14:36.342Z,80.30
2023-02-23T21:18:03.849Z,77.40
2023-02-23T21:21:31.524Z,73.10
2023-02-23T21:25:02.349Z,81.00
2023-02-23T21:28:31.267Z,80.80
2023-02-23T21:31:58.712Z,80.00
2023-02-23T21:35:26.116Z,78.90
2023-02-23T21:38:54.603Z,83.70
2023-02-23T21:42:25.210Z,89.80
2023-02-23T21:45:51.980Z,87.40
2023-02-23T21:49:20.322Z,87.60
2023-02-23T21:52:49.123Z,88.80
2023-02-23T21:56:18.782Z,83.70
2023-02-23T21:59:46.976Z,94.00
2023-02-23T22:03:16.443Z,94.10
2023-02-23T22:06:46.092Z,94.50
2023-02-23T22:10:13.581Z,93.70
2023-02-23T22:13:43.713Z,100.30
2023-02-23T22:17:11.602Z,94.00
2023-02-23T22:20:39.589Z,86.70
2023-02-23T22:24:08.562Z,94.30
2023-02-23T22:27:36.077Z,94.20
2023-02-23T22:31:08.534Z,95.00
2023-02-23T22:34:35.521Z,99.70
2023-02-23T22:38:13.056Z,101.90
2023-02-23T22:41:42.603Z,95.50
2023-02-23T22:45:12.686Z,92.40
2023-02-23T22:48:44.074Z,96.50
2023-02-23T22:52:13.135Z,108.50
2023-02-23T22:55:42.708Z,97.50
2023-02-23T22:59:19.583Z,92.90
2023-02-23T23:02:47.469Z,100.10
2023-02-23T23:06:18.011Z,99.10
2023-02-23T23:09:45.223Z,104.10
2023-02-23T23:13:12.592Z,102.30
2023-02-23T23:16:48.395Z,95.40
2023-02-23T23:20:23.416Z,99.80
2023-02-23T23:23:51.851Z,94.00
2023-02-23T23:27:20.398Z,95.40
2023-02-23T23:30:52.498Z,88.40
2023-02-23T23:34:21.930Z,91.90
2023-02-23T23:37:49.849Z,88.80
2023-02-23T23:41:17.398Z,82.40
2023-02-23T23:44:45.763Z,86.70
2023-02-23T23:48:14.357Z,85.10
2023-02-23T23:51:45.044Z,85.90
2023-02-23T23:55:15.109Z,80.90
2023-02-23T23:58:42.606Z,87.50
